Rayong, Thailand
Current Conditions -  °F | °C
As of 3:00 PM on Monday 22 Dec 2014 (Local Time) from VTBU Reporting Station
Clear Clear  
Wind Chill: 84°   Ceiling: Unl
Heat Index: 84°   Visibility: 4mi
Dew Point: 57°   Wind: 7mph
Humidity: 40%   Direction: 360°N
Pressure: 29.8"   Gusts: NA
Location:  12.67°N, 101.28°E
Report Text: VTBU 220800Z 36006KT 6000 NSC 29/14 Q1009 A2982
Loading
Personal Weather Stations






























Interactive Weather Map New forecast layout! Learn more

10-Day Weather Forecast

Advertisements
Track Severe Weather on mobile